Nearby METAR Reports

 

CWGT - Sisters Island (Auto)
Distance from station: NE 39km
Updated: 2020-06-04 13:00

 Wind from ESE
Wind: ESE 30 km/h
Temperature: 14°C
Dew Point: 10°C
Humidity: 77%
2020/06/04 20:00 CWGT 042000Z AUTO 12016KT 14/10 RMK AO1 PK WND 12017/1949 SLP179 T01380103 58004
CWGB - Ballenas Island (Auto)
Distance from station: ENE 47km
Updated: 2020-02-25 17:00
NOT Current

 Wind from ESE
Wind: ESE 30 km/h
Temperature: 6°C
Wind Chill: 2°C
Dew Point: 2°C
Humidity: 76%
2020/02/26 01:00 CWGB 260100Z AUTO 12016KT 06/02 RMK AO1 PK WND 11021/0009 SLP317 T00580015 58008
CYQQ - CFB Comox
Distance from station: N 55km
Updated: 2020-06-04 13:00
Mostly cloudy
Mostly cloudy
 Wind from ENE
Wind: ENE 11 km/h
Temperature: 18°C
Dew Point: 9°C
Humidity: 56%
Barometer: 1018.3 hPa
Clouds: Mostly cloudy
Visibility: 32 km
Cloud details: Few Clouds 1250 m
Mostly cloudy 2134 m
2020/06/04 20:00 CYQQ 042000Z 07006KT 20SM FEW041 BKN070 18/09 A3007 RMK CU2AC4 SH DIST SE SLP183
 
CYPW - Powell River Airport
Distance from station: NNE 69km
Updated: 2020-06-04 13:00
Mostly cloudy
Mostly cloudy
 Wind from W
Wind: W 13 km/h
Temperature: 15°C
Dew Point: 9°C
Humidity: 68%
Barometer: 1018.3 hPa
Clouds: Mostly cloudy
Visibility: 40 km
Cloud details: Partly cloudy 914 m
Mostly cloudy 1615 m
Mostly cloudy 2591 m
2020/06/04 20:00 CYPW 042000Z 28007KT 250V310 25SM SCT030 BKN053 BKN085 15/09 A3007 RMK CU3SC2AC2 TCU TOPS DIST E SLP185
CYCD - Nanaimo Airport
Distance from station: ESE 70km
Updated: 2020-06-04 13:00
Mostly cloudy
Mostly cloudy
 Wind from E
Wind: E 13 km/h
Temperature: 17°C
Dew Point: 10°C
Humidity: 64%
Barometer: 1017.9 hPa
Clouds: Mostly cloudy
Visibility: 24 km
Cloud details: Partly cloudy 975 m
Mostly cloudy 1676 m
Mostly cloudy 2286 m
2020/06/04 20:00 CYCD 042000Z 09007KT 15SM SCT032 BKN055 BKN075 17/10 A3006 RMK CU3SC2AC1 SLP182 DENSITY ALT 200FT
CYAZ - Tofino Airport
Distance from station: WSW 73km
Updated: 2020-06-04 13:00
Mostly cloudy
Mostly cloudy
 Wind from W
Wind: W 20 km/h
Temperature: 12°C
Dew Point: 10°C
Humidity: 88%
Barometer: 1019.6 hPa
Clouds: Mostly cloudy
Visibility: 24 km
Cloud details: Few Clouds 183 m
Partly cloudy 518 m
Mostly cloudy 1189 m
2020/06/04 20:00 CYAZ 042000Z 28011KT 15SM FEW006 SCT017 BKN039 12/10 A3011 RMK SF1CU2CU5 SF TR SLP198
 
CWEL - Entrance Island (Auto)
Distance from station: E 73km
Updated: 2020-06-04 13:00

 Wind from SSE
Wind: SSE 28 km/h
Temperature: 15°C
Dew Point: 11°C
Humidity: 77%
2020/06/04 20:00 CWEL 042000Z AUTO 15015KT 15/11 RMK AO1 PK WND 14017/1919 SLP183 T01480110 58004
CYBL - Campbell River Airport
Distance from station: NNW 88km
Updated: 2020-06-04 13:00
Mostly cloudy
Mostly cloudy
 Wind from NE
Wind: NE 11 km/h
Temperature: 16°C
Dew Point: 8°C
Humidity: 59%
Barometer: 1017.9 hPa
Clouds: Mostly cloudy
Visibility: 40 km
Cloud details: Partly cloudy 853 m
Partly cloudy 1829 m
Mostly cloudy 2438 m
2020/06/04 20:00 CYBL 042000Z 04006KT 360V130 25SM SCT028TCU SCT060 BKN080 16/08 A3006 RMK TCU3SC1AC2 VIS S 5 SLP182 DENSITY ALT 400FT
CWKH - Malahat Highway (Auto)
Distance from station: SE 116km
Updated: 2020-06-04 13:00

 
Temperature: 15°C
2020/06/04 20:00 CWKH 042000Z AUTO 15/ RMK AO1 SLP178 T0147 58002
 
CYVR - Vancouver Intl Airport
Distance from station: E 118km
Updated: 2020-06-04 13:00
Mostly cloudy
Mostly cloudy
 Wind from E
Wind: E 15 km/h
Temperature: 16°C
Dew Point: 10°C
Humidity: 68%
Barometer: 1018.6 hPa
Clouds: Mostly cloudy
Visibility: 32 km
Cloud details: Few Clouds 853 m
Mostly cloudy 1433 m
Mostly cloudy 3658 m
2020/06/04 20:00 CYVR 042000Z 10008KT 090V150 20SM FEW028TCU BKN047 BKN120 16/10 A3008 RMK TCU2SC3AC2 SLP189
CYYJ - Victoria Intl Airport
Distance from station: ESE 120km
Updated: 2020-06-04 13:37
Light rain, Showers, Mostly cloudy
Light rain, Showers, Mostly cloudy
 Wind from SE
Wind: SE 15 km/h
Temperature: 16°C
Dew Point: 9°C
Humidity: 63%
Barometer: 1018.3 hPa
Summary: Light rain, Showers
Clouds: Mostly cloudy
Visibility: 48 km
Cloud details: Few Clouds 1067 m
Partly cloudy 1585 m
Mostly cloudy 2195 m
2020/06/04 20:37 CYYJ 042037Z 13008KT 30SM -SHRA FEW035TCU SCT052 BKN072 16/09 A3007 RMK TCU1SC3AC1 SLP183 DENSITY ALT 100FT
CWEB - Estevan Pt. (Auto)
Distance from station: W 129km
Updated: 2020-06-04 13:00

 Wind from NW
Wind: NW 35 km/h
Temperature: 13°C
Dew Point: 8°C
Humidity: 72%
2020/06/04 20:00 CWEB 042000Z AUTO 31019KT 13/08 RMK AO1 PK WND 32022/1936 SLP202 T01300081 50003
 
CWQK - Race Rocks (Auto)
Distance from station: SE 138km
Updated: 2020-06-04 13:00

 Wind from SSW
Wind: SSW 24 km/h
Temperature: 11°C
Dew Point: 9°C
Humidity: 88%
2020/06/04 20:00 CWQK 042000Z AUTO 21013KT 11/09 RMK AO1 SLP193 T01130088 58002
CWAE - Whistler
Distance from station: NE 167km
Updated: 2020-06-04 13:00
Light rain, Showers, Mostly cloudy
Light rain, Showers, Mostly cloudy
 Wind from S
Wind: S 7 km/h
Temperature: 14°C
Dew Point: 5°C
Humidity: 55%
Barometer: 1016.9 hPa
Summary: Light rain, Showers
Clouds: Mostly cloudy
Visibility: 24 km
Cloud details: Mostly cloudy 1006 m
2020/06/04 20:00 CWAE 042000Z 18004KT 15SM -SHRA BKN033 14/05 A3003 RMK SC5 WND ESTD SLP174 DENSITY ALT 2400FT
CYZT - Port Hardy Airport
Distance from station: NW 244km
Updated: 2020-06-04 13:00
Light rain, Mostly cloudy
Light rain, Mostly cloudy
 Wind from N
Wind: N 11 km/h
Temperature: 12°C
Dew Point: 9°C
Humidity: 82%
Barometer: 1020 hPa
Summary: Light rain
Clouds: Mostly cloudy
Visibility: 24 km
Cloud details: Few Clouds 396 m
Mostly cloudy 853 m
Mostly cloudy 3353 m
2020/06/04 20:00 CYZT 042000Z 35006KT 15SM -RA FEW013 BKN028 BKN110 12/09 A3012 RMK SF1SC5AC1 SLP201
 
CWRU - Solander Isl (Auto)
Distance from station: WNW 247km
Updated: 2020-06-04 13:00

 Wind from NNE
Wind: NNE 7 km/h
Temperature: 11°C
2020/06/04 20:00 CWRU 042000Z AUTO 02004KT 11/ RMK AO1 SLP162 T0108 50002